sensor_id;sensor_type;location;lat;lon;timestamp;P1;durP1;ratioP1;P2;durP2;ratioP2
51901;SDS011;37929;53.218;6.548;2022-08-01T00:00:55;9.85;;;6.22;;
51901;SDS011;37929;53.218;6.548;2022-08-01T00:10:08;8.38;;;5.28;;
51901;SDS011;37929;53.218;6.548;2022-08-01T00:16:34;10.27;;;6.32;;
51901;SDS011;37929;53.218;6.548;2022-08-01T00:19:34;8.13;;;5.20;;
51901;SDS011;37929;53.218;6.548;2022-08-01T00:22:44;9.43;;;6.43;;
51901;SDS011;37929;53.218;6.548;2022-08-01T00:25:52;8.52;;;5.68;;
51901;SDS011;37929;53.218;6.548;2022-08-01T00:32:32;9.80;;;5.80;;
51901;SDS011;37929;53.218;6.548;2022-08-01T00:48:53;9.57;;;5.90;;
51901;SDS011;37929;53.218;6.548;2022-08-01T00:52:02;9.30;;;6.10;;
51901;SDS011;37929;53.218;6.548;2022-08-01T00:55:13;7.35;;;5.75;;
51901;SDS011;37929;53.218;6.548;2022-08-01T01:01:36;8.00;;;5.20;;
51901;SDS011;37929;53.218;6.548;2022-08-01T01:29:08;5.45;;;3.65;;
51901;SDS011;37929;53.218;6.548;2022-08-01T01:34:54;8.60;;;3.92;;
51901;SDS011;37929;53.218;6.548;2022-08-01T01:44:53;8.63;;;3.83;;
51901;SDS011;37929;53.218;6.548;2022-08-01T01:47:42;6.93;;;3.80;;
51901;SDS011;37929;53.218;6.548;2022-08-01T01:53:44;10.60;;;3.95;;
51901;SDS011;37929;53.218;6.548;2022-08-01T01:56:57;10.27;;;3.67;;
51901;SDS011;37929;53.218;6.548;2022-08-01T01:59:44;9.18;;;3.53;;
51901;SDS011;37929;53.218;6.548;2022-08-01T02:03:13;8.90;;;3.83;;
51901;SDS011;37929;53.218;6.548;2022-08-01T02:08:45;6.90;;;3.80;;
51901;SDS011;37929;53.218;6.548;2022-08-01T02:11:55;8.15;;;3.40;;
51901;SDS011;37929;53.218;6.548;2022-08-01T02:17:39;8.02;;;3.30;;
51901;SDS011;37929;53.218;6.548;2022-08-01T02:20:38;5.55;;;3.78;;
51901;SDS011;37929;53.218;6.548;2022-08-01T02:23:24;5.95;;;2.88;;
51901;SDS011;37929;53.218;6.548;2022-08-01T02:26:14;5.78;;;2.75;;
51901;SDS011;37929;53.218;6.548;2022-08-01T02:32:52;7.15;;;2.90;;
51901;SDS011;37929;53.218;6.548;2022-08-01T02:43:02;7.88;;;3.35;;
51901;SDS011;37929;53.218;6.548;2022-08-01T02:52:32;11.93;;;3.90;;
51901;SDS011;37929;53.218;6.548;2022-08-01T02:55:30;10.27;;;3.83;;
51901;SDS011;37929;53.218;6.548;2022-08-01T02:58:33;11.52;;;3.63;;
51901;SDS011;37929;53.218;6.548;2022-08-01T03:01:37;10.55;;;4.72;;
51901;SDS011;37929;53.218;6.548;2022-08-01T03:04:53;10.48;;;4.65;;
51901;SDS011;37929;53.218;6.548;2022-08-01T03:07:28;11.25;;;4.45;;
51901;SDS011;37929;53.218;6.548;2022-08-01T03:13:07;11.70;;;4.10;;
51901;SDS011;37929;53.218;6.548;2022-08-01T03:16:07;6.95;;;3.47;;
51901;SDS011;37929;53.218;6.548;2022-08-01T03:22:16;11.35;;;4.13;;
51901;SDS011;37929;53.218;6.548;2022-08-01T03:25:02;8.85;;;3.70;;
51901;SDS011;37929;53.218;6.548;2022-08-01T03:27:58;10.27;;;3.97;;
51901;SDS011;37929;53.218;6.548;2022-08-01T03:30:40;8.20;;;4.40;;
51901;SDS011;37929;53.218;6.548;2022-08-01T03:33:15;9.70;;;3.85;;
51901;SDS011;37929;53.218;6.548;2022-08-01T03:39:47;7.65;;;3.80;;
51901;SDS011;37929;53.218;6.548;2022-08-01T03:43:30;9.23;;;4.03;;
51901;SDS011;37929;53.218;6.548;2022-08-01T03:50:13;9.30;;;3.70;;
51901;SDS011;37929;53.218;6.548;2022-08-01T03:53:05;17.02;;;4.75;;
51901;SDS011;37929;53.218;6.548;2022-08-01T03:56:16;9.55;;;4.22;;
51901;SDS011;37929;53.218;6.548;2022-08-01T03:59:23;9.20;;;3.50;;
51901;SDS011;37929;53.218;6.548;2022-08-01T04:05:37;9.27;;;3.60;;
51901;SDS011;37929;53.218;6.548;2022-08-01T04:12:17;7.15;;;3.25;;
51901;SDS011;37929;53.218;6.548;2022-08-01T04:15:25;9.88;;;3.30;;
51901;SDS011;37929;53.218;6.548;2022-08-01T04:18:17;8.38;;;3.05;;
51901;SDS011;37929;53.218;6.548;2022-08-01T04:21:11;10.20;;;4.22;;
51901;SDS011;37929;53.218;6.548;2022-08-01T04:24:21;10.20;;;3.70;;
51901;SDS011;37929;53.218;6.548;2022-08-01T04:27:09;12.20;;;4.38;;
51901;SDS011;37929;53.218;6.548;2022-08-01T04:30:19;9.80;;;3.78;;
51901;SDS011;37929;53.218;6.548;2022-08-01T04:33:33;15.98;;;4.30;;
51901;SDS011;37929;53.218;6.548;2022-08-01T04:36:25;7.25;;;3.80;;
51901;SDS011;37929;53.218;6.548;2022-08-01T04:39:19;11.68;;;3.83;;
51901;SDS011;37929;53.218;6.548;2022-08-01T04:45:36;8.43;;;3.65;;
51901;SDS011;37929;53.218;6.548;2022-08-01T04:48:21;9.57;;;4.20;;
51901;SDS011;37929;53.218;6.548;2022-08-01T04:51:00;10.88;;;3.50;;
51901;SDS011;37929;53.218;6.548;2022-08-01T04:53:31;8.75;;;4.43;;
51901;SDS011;37929;53.218;6.548;2022-08-01T04:56:28;14.05;;;4.10;;
51901;SDS011;37929;53.218;6.548;2022-08-01T04:59:03;13.27;;;4.15;;
51901;SDS011;37929;53.218;6.548;2022-08-01T05:02:02;10.88;;;4.07;;
51901;SDS011;37929;53.218;6.548;2022-08-01T05:04:31;10.75;;;3.80;;
51901;SDS011;37929;53.218;6.548;2022-08-01T05:07:00;14.07;;;4.40;;
51901;SDS011;37929;53.218;6.548;2022-08-01T05:09:33;11.43;;;4.63;;
51901;SDS011;37929;53.218;6.548;2022-08-01T05:11:59;12.60;;;4.20;;
51901;SDS011;37929;53.218;6.548;2022-08-01T05:14:27;9.80;;;3.13;;
51901;SDS011;37929;53.218;6.548;2022-08-01T05:17:02;8.57;;;3.15;;
51901;SDS011;37929;53.218;6.548;2022-08-01T05:19:30;12.18;;;3.70;;
51901;SDS011;37929;53.218;6.548;2022-08-01T05:21:57;10.50;;;3.75;;
51901;SDS011;37929;53.218;6.548;2022-08-01T05:24:28;12.10;;;3.72;;
51901;SDS011;37929;53.218;6.548;2022-08-01T05:26:59;13.55;;;3.88;;
51901;SDS011;37929;53.218;6.548;2022-08-01T05:29:25;16.05;;;4.25;;
51901;SDS011;37929;53.218;6.548;2022-08-01T05:31:52;10.95;;;4.30;;
51901;SDS011;37929;53.218;6.548;2022-08-01T05:34:18;14.32;;;4.32;;
51901;SDS011;37929;53.218;6.548;2022-08-01T05:36:47;17.88;;;5.05;;
51901;SDS011;37929;53.218;6.548;2022-08-01T05:39:13;14.40;;;4.13;;
51901;SDS011;37929;53.218;6.548;2022-08-01T05:41:39;9.70;;;3.35;;
51901;SDS011;37929;53.218;6.548;2022-08-01T05:44:06;11.38;;;4.20;;
51901;SDS011;37929;53.218;6.548;2022-08-01T05:46:32;18.08;;;4.63;;
51901;SDS011;37929;53.218;6.548;2022-08-01T05:48:59;13.45;;;4.13;;
51901;SDS011;37929;53.218;6.548;2022-08-01T05:51:26;12.32;;;4.10;;
51901;SDS011;37929;53.218;6.548;2022-08-01T05:53:52;16.95;;;3.95;;
51901;SDS011;37929;53.218;6.548;2022-08-01T05:56:19;14.85;;;4.40;;
51901;SDS011;37929;53.218;6.548;2022-08-01T05:58:46;13.48;;;4.05;;
51901;SDS011;37929;53.218;6.548;2022-08-01T06:01:12;15.35;;;4.47;;
51901;SDS011;37929;53.218;6.548;2022-08-01T06:03:56;13.98;;;4.03;;
51901;SDS011;37929;53.218;6.548;2022-08-01T06:06:25;20.38;;;4.30;;
51901;SDS011;37929;53.218;6.548;2022-08-01T06:09:16;14.95;;;4.07;;
51901;SDS011;37929;53.218;6.548;2022-08-01T06:11:51;19.30;;;4.45;;
51901;SDS011;37929;53.218;6.548;2022-08-01T06:15:01;13.45;;;3.70;;
51901;SDS011;37929;53.218;6.548;2022-08-01T06:20:58;18.95;;;4.25;;
51901;SDS011;37929;53.218;6.548;2022-08-01T06:24:13;14.93;;;4.03;;
51901;SDS011;37929;53.218;6.548;2022-08-01T06:26:42;12.52;;;3.50;;
51901;SDS011;37929;53.218;6.548;2022-08-01T06:29:29;14.15;;;3.65;;
51901;SDS011;37929;53.218;6.548;2022-08-01T06:32:34;16.35;;;4.15;;
51901;SDS011;37929;53.218;6.548;2022-08-01T06:38:08;13.90;;;3.70;;
51901;SDS011;37929;53.218;6.548;2022-08-01T06:40:42;13.27;;;3.60;;
51901;SDS011;37929;53.218;6.548;2022-08-01T06:43:33;13.10;;;4.30;;
51901;SDS011;37929;53.218;6.548;2022-08-01T06:46:09;12.40;;;4.30;;
51901;SDS011;37929;53.218;6.548;2022-08-01T06:48:42;15.77;;;4.25;;
51901;SDS011;37929;53.218;6.548;2022-08-01T06:51:47;18.10;;;3.65;;
51901;SDS011;37929;53.218;6.548;2022-08-01T06:54:38;10.18;;;3.58;;
51901;SDS011;37929;53.218;6.548;2022-08-01T06:57:14;19.27;;;3.55;;
51901;SDS011;37929;53.218;6.548;2022-08-01T07:00:00;15.43;;;3.85;;
51901;SDS011;37929;53.218;6.548;2022-08-01T07:02:37;12.55;;;3.55;;
51901;SDS011;37929;53.218;6.548;2022-08-01T07:05:05;12.95;;;3.47;;
51901;SDS011;37929;53.218;6.548;2022-08-01T07:07:45;13.48;;;3.33;;
51901;SDS011;37929;53.218;6.548;2022-08-01T07:10:47;15.52;;;4.18;;
51901;SDS011;37929;53.218;6.548;2022-08-01T07:13:39;10.95;;;3.13;;
51901;SDS011;37929;53.218;6.548;2022-08-01T07:16:24;16.20;;;3.72;;
51901;SDS011;37929;53.218;6.548;2022-08-01T07:19:30;7.57;;;3.05;;
51901;SDS011;37929;53.218;6.548;2022-08-01T07:21:56;13.48;;;4.20;;
51901;SDS011;37929;53.218;6.548;2022-08-01T07:24:42;11.00;;;3.38;;
51901;SDS011;37929;53.218;6.548;2022-08-01T07:27:14;11.35;;;3.55;;
51901;SDS011;37929;53.218;6.548;2022-08-01T07:29:52;14.25;;;3.67;;
51901;SDS011;37929;53.218;6.548;2022-08-01T07:32:26;14.23;;;3.15;;
51901;SDS011;37929;53.218;6.548;2022-08-01T07:35:10;14.85;;;3.38;;
51901;SDS011;37929;53.218;6.548;2022-08-01T07:38:31;15.98;;;3.80;;
51901;SDS011;37929;53.218;6.548;2022-08-01T07:41:00;11.70;;;3.50;;
51901;SDS011;37929;53.218;6.548;2022-08-01T07:43:28;10.63;;;3.17;;
51901;SDS011;37929;53.218;6.548;2022-08-01T07:46:06;14.20;;;3.50;;
51901;SDS011;37929;53.218;6.548;2022-08-01T07:48:47;10.95;;;3.42;;
51901;SDS011;37929;53.218;6.548;2022-08-01T07:51:13;9.38;;;3.00;;
51901;SDS011;37929;53.218;6.548;2022-08-01T07:53:39;14.57;;;3.17;;
51901;SDS011;37929;53.218;6.548;2022-08-01T07:56:05;10.68;;;3.03;;
51901;SDS011;37929;53.218;6.548;2022-08-01T07:58:31;12.00;;;3.20;;
51901;SDS011;37929;53.218;6.548;2022-08-01T08:00:58;14.55;;;3.40;;
51901;SDS011;37929;53.218;6.548;2022-08-01T08:03:27;10.52;;;3.03;;
51901;SDS011;37929;53.218;6.548;2022-08-01T08:05:55;11.10;;;2.95;;
51901;SDS011;37929;53.218;6.548;2022-08-01T08:08:21;11.90;;;3.10;;
51901;SDS011;37929;53.218;6.548;2022-08-01T08:10:53;13.60;;;2.95;;
51901;SDS011;37929;53.218;6.548;2022-08-01T08:13:22;9.10;;;2.85;;
51901;SDS011;37929;53.218;6.548;2022-08-01T08:15:54;10.60;;;3.08;;
51901;SDS011;37929;53.218;6.548;2022-08-01T08:18:20;8.48;;;2.45;;
51901;SDS011;37929;53.218;6.548;2022-08-01T08:20:52;11.90;;;2.92;;
51901;SDS011;37929;53.218;6.548;2022-08-01T08:23:25;12.45;;;2.95;;
51901;SDS011;37929;53.218;6.548;2022-08-01T08:26:19;9.30;;;2.67;;
51901;SDS011;37929;53.218;6.548;2022-08-01T08:28:48;10.50;;;2.40;;
51901;SDS011;37929;53.218;6.548;2022-08-01T08:31:35;9.73;;;2.40;;
51901;SDS011;37929;53.218;6.548;2022-08-01T08:34:12;10.27;;;2.60;;
51901;SDS011;37929;53.218;6.548;2022-08-01T08:36:38;10.82;;;2.47;;
51901;SDS011;37929;53.218;6.548;2022-08-01T08:39:33;9.10;;;2.80;;
51901;SDS011;37929;53.218;6.548;2022-08-01T08:42:05;10.18;;;2.53;;
51901;SDS011;37929;53.218;6.548;2022-08-01T08:45:02;10.32;;;2.50;;
51901;SDS011;37929;53.218;6.548;2022-08-01T08:47:28;10.98;;;2.75;;
51901;SDS011;37929;53.218;6.548;2022-08-01T08:49:57;12.20;;;2.95;;
51901;SDS011;37929;53.218;6.548;2022-08-01T08:52:24;10.38;;;2.22;;
51901;SDS011;37929;53.218;6.548;2022-08-01T08:54:51;12.30;;;2.63;;
51901;SDS011;37929;53.218;6.548;2022-08-01T08:57:18;9.48;;;2.53;;
51901;SDS011;37929;53.218;6.548;2022-08-01T08:59:45;9.77;;;2.83;;
51901;SDS011;37929;53.218;6.548;2022-08-01T09:02:17;8.93;;;2.38;;
51901;SDS011;37929;53.218;6.548;2022-08-01T09:04:42;9.35;;;2.92;;
51901;SDS011;37929;53.218;6.548;2022-08-01T09:07:08;7.53;;;2.85;;
51901;SDS011;37929;53.218;6.548;2022-08-01T09:09:35;8.40;;;2.58;;
51901;SDS011;37929;53.218;6.548;2022-08-01T09:12:03;9.52;;;2.75;;
51901;SDS011;37929;53.218;6.548;2022-08-01T09:14:29;9.00;;;2.35;;
51901;SDS011;37929;53.218;6.548;2022-08-01T09:17:01;11.27;;;2.78;;
51901;SDS011;37929;53.218;6.548;2022-08-01T09:19:36;6.63;;;2.03;;
51901;SDS011;37929;53.218;6.548;2022-08-01T09:22:06;5.63;;;2.00;;
51901;SDS011;37929;53.218;6.548;2022-08-01T09:27:39;6.93;;;2.00;;
51901;SDS011;37929;53.218;6.548;2022-08-01T09:30:09;8.63;;;2.47;;
51901;SDS011;37929;53.218;6.548;2022-08-01T09:32:43;7.95;;;2.20;;
51901;SDS011;37929;53.218;6.548;2022-08-01T09:37:57;9.25;;;2.50;;
51901;SDS011;37929;53.218;6.548;2022-08-01T09:40:46;7.20;;;2.03;;
51901;SDS011;37929;53.218;6.548;2022-08-01T09:43:20;11.43;;;2.88;;
51901;SDS011;37929;53.218;6.548;2022-08-01T09:45:50;8.55;;;2.35;;
51901;SDS011;37929;53.218;6.548;2022-08-01T09:48:17;6.82;;;2.42;;
51901;SDS011;37929;53.218;6.548;2022-08-01T09:50:44;7.97;;;2.28;;
51901;SDS011;37929;53.218;6.548;2022-08-01T09:53:15;8.93;;;2.75;;
51901;SDS011;37929;53.218;6.548;2022-08-01T09:55:41;9.60;;;2.25;;
51901;SDS011;37929;53.218;6.548;2022-08-01T09:58:08;7.95;;;2.58;;
51901;SDS011;37929;53.218;6.548;2022-08-01T10:00:36;11.02;;;2.47;;
51901;SDS011;37929;53.218;6.548;2022-08-01T10:03:21;11.65;;;2.30;;
51901;SDS011;37929;53.218;6.548;2022-08-01T10:05:51;5.95;;;2.10;;
51901;SDS011;37929;53.218;6.548;2022-08-01T10:08:18;10.10;;;2.10;;
51901;SDS011;37929;53.218;6.548;2022-08-01T10:11:09;8.15;;;2.42;;
51901;SDS011;37929;53.218;6.548;2022-08-01T10:13:35;10.52;;;2.25;;
51901;SDS011;37929;53.218;6.548;2022-08-01T10:16:01;8.35;;;2.00;;
51901;SDS011;37929;53.218;6.548;2022-08-01T10:18:28;6.90;;;2.13;;
51901;SDS011;37929;53.218;6.548;2022-08-01T10:20:57;5.78;;;2.15;;
51901;SDS011;37929;53.218;6.548;2022-08-01T10:23:26;6.20;;;1.75;;
51901;SDS011;37929;53.218;6.548;2022-08-01T10:25:53;8.45;;;2.05;;
51901;SDS011;37929;53.218;6.548;2022-08-01T10:28:20;6.93;;;2.08;;
51901;SDS011;37929;53.218;6.548;2022-08-01T10:30:48;7.40;;;2.13;;
51901;SDS011;37929;53.218;6.548;2022-08-01T10:33:13;9.65;;;2.05;;
51901;SDS011;37929;53.218;6.548;2022-08-01T10:35:40;6.15;;;2.00;;
51901;SDS011;37929;53.218;6.548;2022-08-01T10:38:06;8.02;;;2.10;;
51901;SDS011;37929;53.218;6.548;2022-08-01T10:40:36;7.90;;;1.90;;
51901;SDS011;37929;53.218;6.548;2022-08-01T10:43:06;7.88;;;2.10;;
51901;SDS011;37929;53.218;6.548;2022-08-01T10:45:40;6.95;;;2.22;;
51901;SDS011;37929;53.218;6.548;2022-08-01T10:51:13;7.10;;;1.83;;
51901;SDS011;37929;53.218;6.548;2022-08-01T10:53:53;5.55;;;1.70;;
51901;SDS011;37929;53.218;6.548;2022-08-01T10:56:20;7.85;;;2.00;;
51901;SDS011;37929;53.218;6.548;2022-08-01T10:58:47;8.90;;;2.10;;
51901;SDS011;37929;53.218;6.548;2022-08-01T11:01:29;9.13;;;1.88;;
51901;SDS011;37929;53.218;6.548;2022-08-01T11:04:08;8.30;;;2.10;;
51901;SDS011;37929;53.218;6.548;2022-08-01T11:06:43;6.13;;;2.10;;
51901;SDS011;37929;53.218;6.548;2022-08-01T11:09:37;6.82;;;1.83;;
51901;SDS011;37929;53.218;6.548;2022-08-01T11:20:15;8.63;;;1.90;;
51901;SDS011;37929;53.218;6.548;2022-08-01T11:23:29;7.95;;;2.03;;
51901;SDS011;37929;53.218;6.548;2022-08-01T11:30:45;6.82;;;1.63;;
51901;SDS011;37929;53.218;6.548;2022-08-01T11:33:47;5.55;;;2.03;;
51901;SDS011;37929;53.218;6.548;2022-08-01T11:41:30;7.28;;;2.10;;
51901;SDS011;37929;53.218;6.548;2022-08-01T11:46:54;8.32;;;1.90;;
51901;SDS011;37929;53.218;6.548;2022-08-01T11:54:57;8.32;;;2.47;;
51901;SDS011;37929;53.218;6.548;2022-08-01T11:57:30;6.43;;;1.90;;
51901;SDS011;37929;53.218;6.548;2022-08-01T12:00:04;6.20;;;1.70;;
51901;SDS011;37929;53.218;6.548;2022-08-01T12:02:38;6.22;;;1.90;;
51901;SDS011;37929;53.218;6.548;2022-08-01T12:05:10;9.63;;;2.65;;
51901;SDS011;37929;53.218;6.548;2022-08-01T12:07:39;6.05;;;2.00;;
51901;SDS011;37929;53.218;6.548;2022-08-01T12:10:10;7.35;;;1.70;;
51901;SDS011;37929;53.218;6.548;2022-08-01T12:15:24;7.18;;;2.05;;
51901;SDS011;37929;53.218;6.548;2022-08-01T12:17:56;8.50;;;2.05;;
51901;SDS011;37929;53.218;6.548;2022-08-01T12:20:26;5.10;;;1.60;;
51901;SDS011;37929;53.218;6.548;2022-08-01T12:22:53;4.82;;;1.70;;
51901;SDS011;37929;53.218;6.548;2022-08-01T12:25:23;8.85;;;1.73;;
51901;SDS011;37929;53.218;6.548;2022-08-01T12:27:49;5.43;;;1.70;;
51901;SDS011;37929;53.218;6.548;2022-08-01T12:30:19;5.45;;;1.70;;
51901;SDS011;37929;53.218;6.548;2022-08-01T12:32:50;4.57;;;1.67;;
51901;SDS011;37929;53.218;6.548;2022-08-01T12:35:26;7.30;;;1.60;;
51901;SDS011;37929;53.218;6.548;2022-08-01T12:37:57;7.03;;;1.90;;
51901;SDS011;37929;53.218;6.548;2022-08-01T12:40:31;3.20;;;1.55;;
51901;SDS011;37929;53.218;6.548;2022-08-01T12:43:05;5.32;;;1.40;;
51901;SDS011;37929;53.218;6.548;2022-08-01T12:45:33;6.68;;;2.08;;
51901;SDS011;37929;53.218;6.548;2022-08-01T12:48:10;4.40;;;1.60;;
51901;SDS011;37929;53.218;6.548;2022-08-01T12:50:46;4.90;;;1.63;;
51901;SDS011;37929;53.218;6.548;2022-08-01T12:53:17;3.35;;;1.27;;
51901;SDS011;37929;53.218;6.548;2022-08-01T12:55:49;5.28;;;1.67;;
51901;SDS011;37929;53.218;6.548;2022-08-01T12:58:20;5.93;;;1.67;;
51901;SDS011;37929;53.218;6.548;2022-08-01T13:00:50;7.40;;;1.70;;
51901;SDS011;37929;53.218;6.548;2022-08-01T13:03:28;6.13;;;1.80;;
51901;SDS011;37929;53.218;6.548;2022-08-01T13:05:59;5.22;;;1.52;;
51901;SDS011;37929;53.218;6.548;2022-08-01T13:08:32;5.18;;;1.60;;
51901;SDS011;37929;53.218;6.548;2022-08-01T13:11:00;7.25;;;2.00;;
51901;SDS011;37929;53.218;6.548;2022-08-01T13:13:42;5.43;;;1.55;;
51901;SDS011;37929;53.218;6.548;2022-08-01T13:16:13;7.35;;;1.58;;
51901;SDS011;37929;53.218;6.548;2022-08-01T13:18:39;5.82;;;1.52;;
51901;SDS011;37929;53.218;6.548;2022-08-01T13:23:39;6.95;;;1.80;;
51901;SDS011;37929;53.218;6.548;2022-08-01T13:26:05;4.32;;;1.50;;
51901;SDS011;37929;53.218;6.548;2022-08-01T13:28:32;5.68;;;1.75;;
51901;SDS011;37929;53.218;6.548;2022-08-01T13:31:04;4.18;;;1.42;;
51901;SDS011;37929;53.218;6.548;2022-08-01T13:33:47;7.18;;;1.85;;
51901;SDS011;37929;53.218;6.548;2022-08-01T13:36:15;10.10;;;2.03;;
51901;SDS011;37929;53.218;6.548;2022-08-01T13:38:41;7.60;;;1.85;;
51901;SDS011;37929;53.218;6.548;2022-08-01T13:41:33;5.07;;;1.75;;
51901;SDS011;37929;53.218;6.548;2022-08-01T13:43:59;5.78;;;1.63;;
51901;SDS011;37929;53.218;6.548;2022-08-01T13:46:25;7.18;;;2.00;;
51901;SDS011;37929;53.218;6.548;2022-08-01T13:48:50;6.15;;;1.65;;
51901;SDS011;37929;53.218;6.548;2022-08-01T13:51:16;2.95;;;1.40;;
51901;SDS011;37929;53.218;6.548;2022-08-01T13:53:42;4.63;;;1.63;;
51901;SDS011;37929;53.218;6.548;2022-08-01T13:56:08;4.53;;;1.50;;
51901;SDS011;37929;53.218;6.548;2022-08-01T13:58:33;7.00;;;1.58;;
51901;SDS011;37929;53.218;6.548;2022-08-01T14:01:02;4.72;;;1.65;;
51901;SDS011;37929;53.218;6.548;2022-08-01T14:03:29;6.93;;;1.70;;
51901;SDS011;37929;53.218;6.548;2022-08-01T14:05:55;3.85;;;1.60;;
51901;SDS011;37929;53.218;6.548;2022-08-01T14:08:21;3.90;;;1.58;;
51901;SDS011;37929;53.218;6.548;2022-08-01T14:10:50;6.50;;;1.73;;
51901;SDS011;37929;53.218;6.548;2022-08-01T14:13:17;5.35;;;1.80;;
51901;SDS011;37929;53.218;6.548;2022-08-01T14:15:43;6.72;;;2.10;;
51901;SDS011;37929;53.218;6.548;2022-08-01T14:18:09;8.00;;;2.10;;
51901;SDS011;37929;53.218;6.548;2022-08-01T14:20:35;4.30;;;1.83;;
51901;SDS011;37929;53.218;6.548;2022-08-01T14:23:02;7.25;;;2.20;;
51901;SDS011;37929;53.218;6.548;2022-08-01T14:25:28;7.35;;;1.90;;
51901;SDS011;37929;53.218;6.548;2022-08-01T14:27:54;8.68;;;2.47;;
51901;SDS011;37929;53.218;6.548;2022-08-01T14:30:20;6.20;;;1.88;;
51901;SDS011;37929;53.218;6.548;2022-08-01T14:32:46;6.85;;;1.98;;
51901;SDS011;37929;53.218;6.548;2022-08-01T14:35:14;7.38;;;2.20;;
51901;SDS011;37929;53.218;6.548;2022-08-01T14:37:40;6.50;;;1.77;;
51901;SDS011;37929;53.218;6.548;2022-08-01T14:40:06;4.97;;;1.60;;
51901;SDS011;37929;53.218;6.548;2022-08-01T14:42:36;6.75;;;2.10;;
51901;SDS011;37929;53.218;6.548;2022-08-01T14:45:10;5.53;;;1.80;;
51901;SDS011;37929;53.218;6.548;2022-08-01T14:47:37;5.85;;;1.77;;
51901;SDS011;37929;53.218;6.548;2022-08-01T14:50:05;7.03;;;1.90;;
51901;SDS011;37929;53.218;6.548;2022-08-01T14:52:32;7.22;;;2.28;;
51901;SDS011;37929;53.218;6.548;2022-08-01T14:54:58;6.90;;;2.10;;
51901;SDS011;37929;53.218;6.548;2022-08-01T14:57:27;9.48;;;2.53;;
51901;SDS011;37929;53.218;6.548;2022-08-01T14:59:53;7.53;;;2.10;;
51901;SDS011;37929;53.218;6.548;2022-08-01T15:02:19;5.38;;;1.90;;
51901;SDS011;37929;53.218;6.548;2022-08-01T15:04:48;6.95;;;2.25;;
51901;SDS011;37929;53.218;6.548;2022-08-01T15:07:16;6.35;;;1.88;;
51901;SDS011;37929;53.218;6.548;2022-08-01T15:09:42;5.18;;;1.80;;
51901;SDS011;37929;53.218;6.548;2022-08-01T15:12:11;6.82;;;1.98;;
51901;SDS011;37929;53.218;6.548;2022-08-01T15:14:37;7.10;;;2.55;;
51901;SDS011;37929;53.218;6.548;2022-08-01T15:17:13;8.25;;;2.00;;
51901;SDS011;37929;53.218;6.548;2022-08-01T15:19:40;8.40;;;1.90;;
51901;SDS011;37929;53.218;6.548;2022-08-01T15:22:06;7.93;;;2.33;;
51901;SDS011;37929;53.218;6.548;2022-08-01T15:24:32;6.38;;;2.10;;
51901;SDS011;37929;53.218;6.548;2022-08-01T15:26:58;6.13;;;1.80;;
51901;SDS011;37929;53.218;6.548;2022-08-01T15:29:31;6.65;;;2.05;;
51901;SDS011;37929;53.218;6.548;2022-08-01T15:32:06;6.45;;;1.85;;
51901;SDS011;37929;53.218;6.548;2022-08-01T15:34:41;7.03;;;2.25;;
51901;SDS011;37929;53.218;6.548;2022-08-01T15:37:08;6.30;;;1.73;;
51901;SDS011;37929;53.218;6.548;2022-08-01T15:39:35;8.95;;;2.13;;
51901;SDS011;37929;53.218;6.548;2022-08-01T15:42:14;6.30;;;2.10;;
51901;SDS011;37929;53.218;6.548;2022-08-01T15:44:41;6.60;;;1.80;;
51901;SDS011;37929;53.218;6.548;2022-08-01T15:47:10;8.55;;;2.38;;
51901;SDS011;37929;53.218;6.548;2022-08-01T15:49:38;6.03;;;2.20;;
51901;SDS011;37929;53.218;6.548;2022-08-01T15:52:04;8.80;;;2.20;;
51901;SDS011;37929;53.218;6.548;2022-08-01T15:54:34;9.18;;;2.10;;
51901;SDS011;37929;53.218;6.548;2022-08-01T15:57:00;6.03;;;2.38;;
51901;SDS011;37929;53.218;6.548;2022-08-01T15:59:26;9.40;;;2.80;;
51901;SDS011;37929;53.218;6.548;2022-08-01T16:01:55;8.57;;;2.00;;
51901;SDS011;37929;53.218;6.548;2022-08-01T16:04:20;4.65;;;2.00;;
51901;SDS011;37929;53.218;6.548;2022-08-01T16:06:46;7.93;;;2.30;;
51901;SDS011;37929;53.218;6.548;2022-08-01T16:09:12;5.63;;;2.33;;
51901;SDS011;37929;53.218;6.548;2022-08-01T16:11:38;7.75;;;2.30;;
51901;SDS011;37929;53.218;6.548;2022-08-01T16:14:11;5.72;;;2.08;;
51901;SDS011;37929;53.218;6.548;2022-08-01T16:16:42;8.70;;;2.58;;
51901;SDS011;37929;53.218;6.548;2022-08-01T16:19:21;6.85;;;2.13;;
51901;SDS011;37929;53.218;6.548;2022-08-01T16:21:52;5.45;;;2.20;;
51901;SDS011;37929;53.218;6.548;2022-08-01T16:24:21;6.72;;;2.67;;
51901;SDS011;37929;53.218;6.548;2022-08-01T16:26:53;7.47;;;2.42;;
51901;SDS011;37929;53.218;6.548;2022-08-01T16:29:19;5.10;;;2.10;;
51901;SDS011;37929;53.218;6.548;2022-08-01T16:31:51;6.35;;;2.70;;
51901;SDS011;37929;53.218;6.548;2022-08-01T16:34:16;9.80;;;4.18;;
51901;SDS011;37929;53.218;6.548;2022-08-01T16:36:42;6.57;;;2.40;;
51901;SDS011;37929;53.218;6.548;2022-08-01T16:39:08;8.48;;;2.00;;
51901;SDS011;37929;53.218;6.548;2022-08-01T16:41:34;7.82;;;2.08;;
51901;SDS011;37929;53.218;6.548;2022-08-01T16:44:02;8.65;;;2.10;;
51901;SDS011;37929;53.218;6.548;2022-08-01T16:46:27;7.22;;;2.00;;
51901;SDS011;37929;53.218;6.548;2022-08-01T16:48:55;6.13;;;2.08;;
51901;SDS011;37929;53.218;6.548;2022-08-01T16:51:24;8.40;;;2.20;;
51901;SDS011;37929;53.218;6.548;2022-08-01T16:53:51;7.07;;;2.20;;
51901;SDS011;37929;53.218;6.548;2022-08-01T16:56:20;7.28;;;2.50;;
51901;SDS011;37929;53.218;6.548;2022-08-01T16:58:46;7.22;;;2.40;;
51901;SDS011;37929;53.218;6.548;2022-08-01T17:01:12;9.20;;;3.20;;
51901;SDS011;37929;53.218;6.548;2022-08-01T17:03:37;7.38;;;2.88;;
51901;SDS011;37929;53.218;6.548;2022-08-01T17:06:04;7.18;;;2.42;;
51901;SDS011;37929;53.218;6.548;2022-08-01T17:08:30;5.22;;;2.13;;
51901;SDS011;37929;53.218;6.548;2022-08-01T17:10:56;7.07;;;2.03;;
51901;SDS011;37929;53.218;6.548;2022-08-01T17:13:22;6.25;;;2.40;;
51901;SDS011;37929;53.218;6.548;2022-08-01T17:15:48;5.63;;;2.42;;
51901;SDS011;37929;53.218;6.548;2022-08-01T17:18:17;7.82;;;2.35;;
51901;SDS011;37929;53.218;6.548;2022-08-01T17:20:43;5.35;;;2.05;;
51901;SDS011;37929;53.218;6.548;2022-08-01T17:23:12;7.00;;;2.40;;
51901;SDS011;37929;53.218;6.548;2022-08-01T17:25:38;7.38;;;2.28;;
51901;SDS011;37929;53.218;6.548;2022-08-01T17:28:06;5.22;;;1.80;;
51901;SDS011;37929;53.218;6.548;2022-08-01T17:30:35;5.95;;;1.77;;
51901;SDS011;37929;53.218;6.548;2022-08-01T17:33:04;5.80;;;1.85;;
51901;SDS011;37929;53.218;6.548;2022-08-01T17:35:34;6.13;;;1.70;;
51901;SDS011;37929;53.218;6.548;2022-08-01T17:38:02;5.53;;;1.88;;
51901;SDS011;37929;53.218;6.548;2022-08-01T17:40:28;6.15;;;1.95;;
51901;SDS011;37929;53.218;6.548;2022-08-01T17:42:54;5.65;;;1.92;;
51901;SDS011;37929;53.218;6.548;2022-08-01T17:45:25;5.82;;;1.65;;
51901;SDS011;37929;53.218;6.548;2022-08-01T17:47:51;5.32;;;2.55;;
51901;SDS011;37929;53.218;6.548;2022-08-01T17:50:17;6.10;;;2.00;;
51901;SDS011;37929;53.218;6.548;2022-08-01T17:52:43;5.45;;;2.10;;
51901;SDS011;37929;53.218;6.548;2022-08-01T17:55:10;4.72;;;2.00;;
51901;SDS011;37929;53.218;6.548;2022-08-01T17:57:36;6.20;;;2.10;;
51901;SDS011;37929;53.218;6.548;2022-08-01T18:00:03;6.30;;;2.40;;
51901;SDS011;37929;53.218;6.548;2022-08-01T18:02:30;3.95;;;1.70;;
51901;SDS011;37929;53.218;6.548;2022-08-01T18:04:59;7.00;;;1.80;;
51901;SDS011;37929;53.218;6.548;2022-08-01T18:07:25;5.93;;;2.45;;
51901;SDS011;37929;53.218;6.548;2022-08-01T18:09:51;5.30;;;2.22;;
51901;SDS011;37929;53.218;6.548;2022-08-01T18:12:19;5.18;;;2.08;;
51901;SDS011;37929;53.218;6.548;2022-08-01T18:14:48;7.80;;;2.22;;
51901;SDS011;37929;53.218;6.548;2022-08-01T18:17:17;4.97;;;1.80;;